Terminal Aerodrome Forecast
Issued by NWS

Home | Current Version | Previous Version | Text Only | Print | Product List | Glossary On
Versions: 1 2 3 4 5 6 7 8 9 10 11 12 13 14 15 16 17 18 19 20 21 22 23 24 25 26
000
FTUS45 KGJT 230201 AAB
TAFDRO
TAF AMD
KDRO 230201Z 2302/2324 06007KT 6SM -SN OVC045
      TEMPO 2302/2306 3SM -SN BR OVC030
     FM230600 VRB03KT 1SM -SN BR OVC008
     FM231200 17009KT 5SM -SN BR OVC008
     FM231500 20010G18KT 6SM -SHSN OVC008
     FM231800 25012KT 3SM -SN BR OVC007=

USA.gov is the U.S. government's official web portal to all federal, state and local government web resources and services.